sensor_id;sensor_type;location;lat;lon;timestamp;P1;durP1;ratioP1;P2;durP2;ratioP2
52608;SDS011;38503;48.544;12.142;2022-09-01T00:02:28;27.20;;;24.40;;
52608;SDS011;38503;48.544;12.142;2022-09-01T00:04:56;27.47;;;24.47;;
52608;SDS011;38503;48.544;12.142;2022-09-01T00:07:24;27.23;;;24.40;;
52608;SDS011;38503;48.544;12.142;2022-09-01T00:09:55;27.23;;;24.43;;
52608;SDS011;38503;48.544;12.142;2022-09-01T00:12:23;27.10;;;24.23;;
52608;SDS011;38503;48.544;12.142;2022-09-01T00:14:51;28.60;;;25.57;;
52608;SDS011;38503;48.544;12.142;2022-09-01T00:17:18;36.33;;;27.60;;
52608;SDS011;38503;48.544;12.142;2022-09-01T00:19:45;34.10;;;28.27;;
52608;SDS011;38503;48.544;12.142;2022-09-01T00:22:12;29.93;;;26.73;;
52608;SDS011;38503;48.544;12.142;2022-09-01T00:24:39;32.17;;;28.60;;
52608;SDS011;38503;48.544;12.142;2022-09-01T00:27:06;38.03;;;32.03;;
52608;SDS011;38503;48.544;12.142;2022-09-01T00:29:34;39.97;;;33.23;;
52608;SDS011;38503;48.544;12.142;2022-09-01T00:32:01;38.63;;;33.13;;
52608;SDS011;38503;48.544;12.142;2022-09-01T00:34:30;36.80;;;32.80;;
52608;SDS011;38503;48.544;12.142;2022-09-01T00:36:56;39.90;;;33.70;;
52608;SDS011;38503;48.544;12.142;2022-09-01T00:39:24;43.13;;;36.23;;
52608;SDS011;38503;48.544;12.142;2022-09-01T00:41:51;39.60;;;33.13;;
52608;SDS011;38503;48.544;12.142;2022-09-01T00:44:19;36.37;;;32.20;;
52608;SDS011;38503;48.544;12.142;2022-09-01T00:46:56;32.60;;;28.10;;
52608;SDS011;38503;48.544;12.142;2022-09-01T00:52:00;31.30;;;26.27;;
52608;SDS011;38503;48.544;12.142;2022-09-01T00:54:33;31.87;;;28.57;;
52608;SDS011;38503;48.544;12.142;2022-09-01T00:57:05;32.07;;;27.17;;
52608;SDS011;38503;48.544;12.142;2022-09-01T00:59:35;29.47;;;26.37;;
52608;SDS011;38503;48.544;12.142;2022-09-01T01:02:07;32.50;;;26.03;;
52608;SDS011;38503;48.544;12.142;2022-09-01T01:04:36;29.53;;;24.27;;
52608;SDS011;38503;48.544;12.142;2022-09-01T01:07:03;28.10;;;23.00;;
52608;SDS011;38503;48.544;12.142;2022-09-01T01:09:32;26.47;;;23.67;;
52608;SDS011;38503;48.544;12.142;2022-09-01T01:12:03;26.87;;;22.63;;
52608;SDS011;38503;48.544;12.142;2022-09-01T01:14:33;27.13;;;24.33;;
52608;SDS011;38503;48.544;12.142;2022-09-01T01:17:02;27.50;;;22.87;;
52608;SDS011;38503;48.544;12.142;2022-09-01T01:22:20;26.93;;;23.00;;
52608;SDS011;38503;48.544;12.142;2022-09-01T01:25:11;26.07;;;23.33;;
52608;SDS011;38503;48.544;12.142;2022-09-01T01:27:39;27.90;;;23.70;;
52608;SDS011;38503;48.544;12.142;2022-09-01T01:30:10;25.83;;;23.23;;
52608;SDS011;38503;48.544;12.142;2022-09-01T01:32:38;26.27;;;23.57;;
52608;SDS011;38503;48.544;12.142;2022-09-01T01:35:09;25.93;;;23.20;;
52608;SDS011;38503;48.544;12.142;2022-09-01T01:37:44;25.47;;;22.73;;
52608;SDS011;38503;48.544;12.142;2022-09-01T01:40:15;24.73;;;21.97;;
52608;SDS011;38503;48.544;12.142;2022-09-01T01:42:46;25.57;;;22.90;;
52608;SDS011;38503;48.544;12.142;2022-09-01T01:45:16;25.80;;;23.10;;
52608;SDS011;38503;48.544;12.142;2022-09-01T01:47:46;26.37;;;23.53;;
52608;SDS011;38503;48.544;12.142;2022-09-01T01:50:22;26.50;;;23.63;;
52608;SDS011;38503;48.544;12.142;2022-09-01T01:52:55;25.50;;;22.63;;
52608;SDS011;38503;48.544;12.142;2022-09-01T01:55:25;25.10;;;22.50;;
52608;SDS011;38503;48.544;12.142;2022-09-01T01:57:54;24.73;;;22.13;;
52608;SDS011;38503;48.544;12.142;2022-09-01T02:00:30;24.27;;;21.77;;
52608;SDS011;38503;48.544;12.142;2022-09-01T02:03:00;23.77;;;21.47;;
52608;SDS011;38503;48.544;12.142;2022-09-01T02:05:29;25.23;;;22.80;;
52608;SDS011;38503;48.544;12.142;2022-09-01T02:07:59;25.73;;;23.13;;
52608;SDS011;38503;48.544;12.142;2022-09-01T02:10:33;34.60;;;30.00;;
52608;SDS011;38503;48.544;12.142;2022-09-01T02:13:04;32.37;;;28.93;;
52608;SDS011;38503;48.544;12.142;2022-09-01T02:15:34;34.23;;;30.00;;
52608;SDS011;38503;48.544;12.142;2022-09-01T02:18:30;43.10;;;34.47;;
52608;SDS011;38503;48.544;12.142;2022-09-01T02:21:02;38.07;;;33.83;;
52608;SDS011;38503;48.544;12.142;2022-09-01T02:23:38;41.23;;;35.73;;
52608;SDS011;38503;48.544;12.142;2022-09-01T02:26:06;43.87;;;36.37;;
52608;SDS011;38503;48.544;12.142;2022-09-01T02:28:44;42.27;;;35.17;;
52608;SDS011;38503;48.544;12.142;2022-09-01T02:31:20;42.93;;;36.03;;
52608;SDS011;38503;48.544;12.142;2022-09-01T02:33:48;42.93;;;35.30;;
52608;SDS011;38503;48.544;12.142;2022-09-01T02:36:16;44.80;;;37.03;;
52608;SDS011;38503;48.544;12.142;2022-09-01T02:38:45;47.80;;;39.57;;
52608;SDS011;38503;48.544;12.142;2022-09-01T02:41:20;46.70;;;38.47;;
52608;SDS011;38503;48.544;12.142;2022-09-01T02:43:50;46.30;;;38.63;;
52608;SDS011;38503;48.544;12.142;2022-09-01T02:46:17;50.73;;;39.27;;
52608;SDS011;38503;48.544;12.142;2022-09-01T02:48:50;51.77;;;41.67;;
52608;SDS011;38503;48.544;12.142;2022-09-01T02:51:18;44.77;;;39.93;;
52608;SDS011;38503;48.544;12.142;2022-09-01T02:53:47;46.63;;;39.30;;
52608;SDS011;38503;48.544;12.142;2022-09-01T02:56:18;45.63;;;37.93;;
52608;SDS011;38503;48.544;12.142;2022-09-01T02:58:51;48.57;;;37.50;;
52608;SDS011;38503;48.544;12.142;2022-09-01T03:01:23;42.70;;;35.17;;
52608;SDS011;38503;48.544;12.142;2022-09-01T03:03:55;36.43;;;31.63;;
52608;SDS011;38503;48.544;12.142;2022-09-01T03:06:27;33.93;;;30.33;;
52608;SDS011;38503;48.544;12.142;2022-09-01T03:08:56;33.03;;;29.30;;
52608;SDS011;38503;48.544;12.142;2022-09-01T03:11:28;29.73;;;26.33;;
52608;SDS011;38503;48.544;12.142;2022-09-01T03:13:57;26.33;;;23.63;;
52608;SDS011;38503;48.544;12.142;2022-09-01T03:16:24;24.67;;;22.17;;
52608;SDS011;38503;48.544;12.142;2022-09-01T03:18:51;24.10;;;21.47;;
52608;SDS011;38503;48.544;12.142;2022-09-01T03:21:19;26.90;;;24.03;;
52608;SDS011;38503;48.544;12.142;2022-09-01T03:23:47;31.63;;;23.13;;
52608;SDS011;38503;48.544;12.142;2022-09-01T03:26:15;25.03;;;22.40;;
52608;SDS011;38503;48.544;12.142;2022-09-01T03:28:44;22.57;;;20.27;;
52608;SDS011;38503;48.544;12.142;2022-09-01T03:31:12;21.10;;;18.90;;
52608;SDS011;38503;48.544;12.142;2022-09-01T03:33:40;19.77;;;17.97;;
52608;SDS011;38503;48.544;12.142;2022-09-01T03:36:07;20.53;;;18.43;;
52608;SDS011;38503;48.544;12.142;2022-09-01T03:38:48;20.10;;;18.10;;
52608;SDS011;38503;48.544;12.142;2022-09-01T03:41:20;20.00;;;18.07;;
52608;SDS011;38503;48.544;12.142;2022-09-01T03:43:50;20.73;;;18.20;;
52608;SDS011;38503;48.544;12.142;2022-09-01T03:46:20;19.93;;;17.97;;
52608;SDS011;38503;48.544;12.142;2022-09-01T03:48:50;18.73;;;16.67;;
52608;SDS011;38503;48.544;12.142;2022-09-01T03:51:21;18.53;;;16.83;;
52608;SDS011;38503;48.544;12.142;2022-09-01T03:53:50;19.53;;;17.57;;
52608;SDS011;38503;48.544;12.142;2022-09-01T03:56:22;18.43;;;16.63;;
52608;SDS011;38503;48.544;12.142;2022-09-01T03:58:53;19.00;;;17.23;;
52608;SDS011;38503;48.544;12.142;2022-09-01T04:01:22;19.93;;;17.93;;
52608;SDS011;38503;48.544;12.142;2022-09-01T04:03:49;19.80;;;17.67;;
52608;SDS011;38503;48.544;12.142;2022-09-01T04:06:18;18.70;;;16.70;;
52608;SDS011;38503;48.544;12.142;2022-09-01T04:08:46;20.27;;;18.17;;
52608;SDS011;38503;48.544;12.142;2022-09-01T04:11:14;20.23;;;18.00;;
52608;SDS011;38503;48.544;12.142;2022-09-01T04:13:49;20.77;;;18.73;;
52608;SDS011;38503;48.544;12.142;2022-09-01T04:16:21;20.93;;;18.73;;
52608;SDS011;38503;48.544;12.142;2022-09-01T04:19:09;22.43;;;18.93;;
52608;SDS011;38503;48.544;12.142;2022-09-01T04:21:45;26.50;;;22.87;;
52608;SDS011;38503;48.544;12.142;2022-09-01T04:24:16;30.83;;;26.27;;
52608;SDS011;38503;48.544;12.142;2022-09-01T04:26:44;29.10;;;26.07;;
52608;SDS011;38503;48.544;12.142;2022-09-01T04:29:14;35.83;;;29.83;;
52608;SDS011;38503;48.544;12.142;2022-09-01T04:31:44;37.67;;;32.63;;
52608;SDS011;38503;48.544;12.142;2022-09-01T04:34:14;39.17;;;34.80;;
52608;SDS011;38503;48.544;12.142;2022-09-01T04:36:42;37.20;;;33.23;;
52608;SDS011;38503;48.544;12.142;2022-09-01T04:39:10;40.13;;;33.83;;
52608;SDS011;38503;48.544;12.142;2022-09-01T04:41:39;35.97;;;32.07;;
52608;SDS011;38503;48.544;12.142;2022-09-01T04:44:08;38.40;;;32.50;;
52608;SDS011;38503;48.544;12.142;2022-09-01T04:46:36;41.30;;;32.77;;
52608;SDS011;38503;48.544;12.142;2022-09-01T04:49:07;37.87;;;33.00;;
52608;SDS011;38503;48.544;12.142;2022-09-01T04:51:42;36.57;;;32.67;;
52608;SDS011;38503;48.544;12.142;2022-09-01T04:54:10;35.00;;;30.70;;
52608;SDS011;38503;48.544;12.142;2022-09-01T04:56:42;34.33;;;29.67;;
52608;SDS011;38503;48.544;12.142;2022-09-01T04:59:12;37.03;;;30.93;;
52608;SDS011;38503;48.544;12.142;2022-09-01T05:01:40;35.70;;;31.83;;
52608;SDS011;38503;48.544;12.142;2022-09-01T05:04:11;37.07;;;31.87;;
52608;SDS011;38503;48.544;12.142;2022-09-01T05:06:47;38.07;;;33.17;;
52608;SDS011;38503;48.544;12.142;2022-09-01T05:09:17;42.93;;;36.80;;
52608;SDS011;38503;48.544;12.142;2022-09-01T05:11:44;43.23;;;37.70;;
52608;SDS011;38503;48.544;12.142;2022-09-01T05:14:13;44.60;;;34.50;;
52608;SDS011;38503;48.544;12.142;2022-09-01T05:16:44;37.07;;;32.27;;
52608;SDS011;38503;48.544;12.142;2022-09-01T05:19:12;33.47;;;28.97;;
52608;SDS011;38503;48.544;12.142;2022-09-01T05:21:40;25.50;;;22.77;;
52608;SDS011;38503;48.544;12.142;2022-09-01T05:24:12;27.53;;;22.63;;
52608;SDS011;38503;48.544;12.142;2022-09-01T05:26:41;24.37;;;21.70;;
52608;SDS011;38503;48.544;12.142;2022-09-01T05:29:09;23.33;;;20.93;;
52608;SDS011;38503;48.544;12.142;2022-09-01T05:31:39;25.53;;;22.87;;
52608;SDS011;38503;48.544;12.142;2022-09-01T05:34:07;28.50;;;25.43;;
52608;SDS011;38503;48.544;12.142;2022-09-01T05:36:36;29.90;;;26.63;;
52608;SDS011;38503;48.544;12.142;2022-09-01T05:39:07;28.77;;;25.60;;
52608;SDS011;38503;48.544;12.142;2022-09-01T05:41:37;27.80;;;24.80;;
52608;SDS011;38503;48.544;12.142;2022-09-01T05:44:07;25.10;;;22.50;;
52608;SDS011;38503;48.544;12.142;2022-09-01T05:46:35;26.63;;;22.87;;
52608;SDS011;38503;48.544;12.142;2022-09-01T05:49:05;25.70;;;23.00;;
52608;SDS011;38503;48.544;12.142;2022-09-01T05:51:34;26.77;;;24.00;;
52608;SDS011;38503;48.544;12.142;2022-09-01T05:54:16;30.77;;;27.57;;
52608;SDS011;38503;48.544;12.142;2022-09-01T05:56:48;34.43;;;27.03;;
52608;SDS011;38503;48.544;12.142;2022-09-01T05:59:15;30.07;;;26.87;;
52608;SDS011;38503;48.544;12.142;2022-09-01T06:01:51;25.70;;;23.07;;
52608;SDS011;38503;48.544;12.142;2022-09-01T06:04:19;22.07;;;19.80;;
52608;SDS011;38503;48.544;12.142;2022-09-01T06:06:48;23.60;;;21.17;;
52608;SDS011;38503;48.544;12.142;2022-09-01T06:09:38;25.50;;;22.90;;
52608;SDS011;38503;48.544;12.142;2022-09-01T06:12:06;24.50;;;22.00;;
52608;SDS011;38503;48.544;12.142;2022-09-01T06:14:43;23.90;;;20.40;;
52608;SDS011;38503;48.544;12.142;2022-09-01T06:17:11;19.73;;;17.63;;
52608;SDS011;38503;48.544;12.142;2022-09-01T06:19:42;20.00;;;17.63;;
52608;SDS011;38503;48.544;12.142;2022-09-01T06:22:09;17.17;;;15.47;;
52608;SDS011;38503;48.544;12.142;2022-09-01T06:24:37;15.70;;;14.20;;
52608;SDS011;38503;48.544;12.142;2022-09-01T06:27:08;14.53;;;13.03;;
52608;SDS011;38503;48.544;12.142;2022-09-01T06:29:35;14.50;;;13.10;;
52608;SDS011;38503;48.544;12.142;2022-09-01T06:32:05;13.77;;;12.40;;
52608;SDS011;38503;48.544;12.142;2022-09-01T06:34:39;12.97;;;11.67;;
52608;SDS011;38503;48.544;12.142;2022-09-01T06:37:08;13.70;;;12.23;;
52608;SDS011;38503;48.544;12.142;2022-09-01T06:39:36;14.80;;;11.73;;
52608;SDS011;38503;48.544;12.142;2022-09-01T06:42:03;12.87;;;11.50;;
52608;SDS011;38503;48.544;12.142;2022-09-01T06:44:31;12.90;;;11.63;;
52608;SDS011;38503;48.544;12.142;2022-09-01T06:46:59;13.30;;;12.10;;
52608;SDS011;38503;48.544;12.142;2022-09-01T06:49:26;13.37;;;11.97;;
52608;SDS011;38503;48.544;12.142;2022-09-01T06:52:00;13.40;;;12.13;;
52608;SDS011;38503;48.544;12.142;2022-09-01T06:54:31;14.37;;;11.07;;
52608;SDS011;38503;48.544;12.142;2022-09-01T06:57:03;12.10;;;10.90;;
52608;SDS011;38503;48.544;12.142;2022-09-01T06:59:50;16.30;;;14.80;;
52608;SDS011;38503;48.544;12.142;2022-09-01T07:02:19;11.57;;;10.33;;
52608;SDS011;38503;48.544;12.142;2022-09-01T07:04:51;11.50;;;10.30;;
52608;SDS011;38503;48.544;12.142;2022-09-01T07:07:18;12.57;;;11.37;;
52608;SDS011;38503;48.544;12.142;2022-09-01T07:10:07;12.77;;;11.20;;
52608;SDS011;38503;48.544;12.142;2022-09-01T07:12:54;12.50;;;11.20;;
52608;SDS011;38503;48.544;12.142;2022-09-01T07:15:36;11.07;;;9.90;;
52608;SDS011;38503;48.544;12.142;2022-09-01T07:18:27;10.63;;;9.53;;
52608;SDS011;38503;48.544;12.142;2022-09-01T07:20:56;13.33;;;10.00;;
52608;SDS011;38503;48.544;12.142;2022-09-01T07:23:43;10.57;;;8.97;;
52608;SDS011;38503;48.544;12.142;2022-09-01T07:26:31;9.87;;;7.83;;
52608;SDS011;38503;48.544;12.142;2022-09-01T07:29:01;11.57;;;7.70;;
52608;SDS011;38503;48.544;12.142;2022-09-01T07:31:33;9.73;;;8.37;;
52608;SDS011;38503;48.544;12.142;2022-09-01T07:34:24;8.97;;;8.07;;
52608;SDS011;38503;48.544;12.142;2022-09-01T07:37:11;9.20;;;8.40;;
52608;SDS011;38503;48.544;12.142;2022-09-01T07:39:58;7.80;;;7.10;;
52608;SDS011;38503;48.544;12.142;2022-09-01T07:42:46;8.47;;;6.80;;
52608;SDS011;38503;48.544;12.142;2022-09-01T07:45:35;9.33;;;6.87;;
52608;SDS011;38503;48.544;12.142;2022-09-01T07:48:12;7.80;;;6.87;;
52608;SDS011;38503;48.544;12.142;2022-09-01T07:51:00;6.97;;;6.37;;
52608;SDS011;38503;48.544;12.142;2022-09-01T07:53:47;6.93;;;6.33;;
52608;SDS011;38503;48.544;12.142;2022-09-01T07:56:17;6.03;;;5.53;;
52608;SDS011;38503;48.544;12.142;2022-09-01T07:58:46;8.30;;;5.57;;
52608;SDS011;38503;48.544;12.142;2022-09-01T08:01:16;6.17;;;5.67;;
52608;SDS011;38503;48.544;12.142;2022-09-01T08:03:45;7.40;;;6.20;;
52608;SDS011;38503;48.544;12.142;2022-09-01T08:06:15;5.90;;;5.40;;
52608;SDS011;38503;48.544;12.142;2022-09-01T08:08:44;6.20;;;5.70;;
52608;SDS011;38503;48.544;12.142;2022-09-01T08:11:17;6.30;;;5.70;;
52608;SDS011;38503;48.544;12.142;2022-09-01T08:14:05;7.47;;;5.57;;
52608;SDS011;38503;48.544;12.142;2022-09-01T08:16:32;6.80;;;6.00;;
52608;SDS011;38503;48.544;12.142;2022-09-01T08:19:17;5.63;;;5.20;;
52608;SDS011;38503;48.544;12.142;2022-09-01T08:21:44;6.00;;;5.40;;
52608;SDS011;38503;48.544;12.142;2022-09-01T08:24:11;6.30;;;5.70;;
52608;SDS011;38503;48.544;12.142;2022-09-01T08:26:39;6.10;;;5.60;;
52608;SDS011;38503;48.544;12.142;2022-09-01T08:29:06;5.23;;;4.63;;
52608;SDS011;38503;48.544;12.142;2022-09-01T08:31:33;4.77;;;4.33;;
52608;SDS011;38503;48.544;12.142;2022-09-01T08:34:03;4.53;;;4.07;;
52608;SDS011;38503;48.544;12.142;2022-09-01T08:36:30;5.40;;;4.00;;
52608;SDS011;38503;48.544;12.142;2022-09-01T08:38:58;4.97;;;4.50;;
52608;SDS011;38503;48.544;12.142;2022-09-01T08:47:02;4.57;;;4.00;;
52608;SDS011;38503;48.544;12.142;2022-09-01T08:49:38;3.77;;;3.47;;
52608;SDS011;38503;48.544;12.142;2022-09-01T08:54:48;3.60;;;3.30;;
52608;SDS011;38503;48.544;12.142;2022-09-01T08:57:43;4.20;;;3.63;;
52608;SDS011;38503;48.544;12.142;2022-09-01T09:00:12;4.43;;;3.50;;
52608;SDS011;38503;48.544;12.142;2022-09-01T09:02:44;4.50;;;3.43;;
52608;SDS011;38503;48.544;12.142;2022-09-01T09:05:32;4.37;;;3.60;;
52608;SDS011;38503;48.544;12.142;2022-09-01T09:08:15;3.67;;;3.37;;
52608;SDS011;38503;48.544;12.142;2022-09-01T09:16:22;3.93;;;3.53;;
52608;SDS011;38503;48.544;12.142;2022-09-01T09:18:57;4.13;;;3.73;;
52608;SDS011;38503;48.544;12.142;2022-09-01T09:21:34;5.00;;;3.30;;
52608;SDS011;38503;48.544;12.142;2022-09-01T09:24:10;3.90;;;3.60;;
52608;SDS011;38503;48.544;12.142;2022-09-01T09:26:51;3.77;;;3.43;;
52608;SDS011;38503;48.544;12.142;2022-09-01T09:29:19;3.73;;;3.43;;
52608;SDS011;38503;48.544;12.142;2022-09-01T09:31:48;3.77;;;3.37;;
52608;SDS011;38503;48.544;12.142;2022-09-01T09:34:36;3.53;;;3.23;;
52608;SDS011;38503;48.544;12.142;2022-09-01T09:42:36;3.90;;;3.37;;
52608;SDS011;38503;48.544;12.142;2022-09-01T09:47:56;3.50;;;3.20;;
52608;SDS011;38503;48.544;12.142;2022-09-01T09:52:52;4.20;;;3.50;;
52608;SDS011;38503;48.544;12.142;2022-09-01T09:55:35;4.10;;;3.67;;
52608;SDS011;38503;48.544;12.142;2022-09-01T09:58:21;3.87;;;3.47;;
52608;SDS011;38503;48.544;12.142;2022-09-01T10:00:59;3.70;;;3.40;;
52608;SDS011;38503;48.544;12.142;2022-09-01T10:03:36;3.93;;;3.50;;
52608;SDS011;38503;48.544;12.142;2022-09-01T10:06:13;4.50;;;3.30;;
52608;SDS011;38503;48.544;12.142;2022-09-01T10:09:06;4.27;;;3.50;;
52608;SDS011;38503;48.544;12.142;2022-09-01T10:11:40;4.00;;;3.60;;
52608;SDS011;38503;48.544;12.142;2022-09-01T10:14:19;4.27;;;3.30;;
52608;SDS011;38503;48.544;12.142;2022-09-01T10:17:11;5.13;;;4.10;;
52608;SDS011;38503;48.544;12.142;2022-09-01T10:19:50;5.37;;;3.90;;
52608;SDS011;38503;48.544;12.142;2022-09-01T10:22:23;5.13;;;3.30;;
52608;SDS011;38503;48.544;12.142;2022-09-01T10:24:51;4.33;;;4.00;;
52608;SDS011;38503;48.544;12.142;2022-09-01T10:27:22;3.57;;;3.20;;
52608;SDS011;38503;48.544;12.142;2022-09-01T10:32:50;3.50;;;3.20;;
52608;SDS011;38503;48.544;12.142;2022-09-01T10:38:20;3.90;;;3.60;;
52608;SDS011;38503;48.544;12.142;2022-09-01T10:40:51;3.73;;;3.30;;
52608;SDS011;38503;48.544;12.142;2022-09-01T10:49:17;3.40;;;3.07;;
52608;SDS011;38503;48.544;12.142;2022-09-01T10:52:22;3.17;;;2.97;;
52608;SDS011;38503;48.544;12.142;2022-09-01T10:55:25;3.00;;;2.70;;
52608;SDS011;38503;48.544;12.142;2022-09-01T10:58:03;4.60;;;2.83;;
52608;SDS011;38503;48.544;12.142;2022-09-01T11:00:52;3.40;;;3.10;;
52608;SDS011;38503;48.544;12.142;2022-09-01T11:03:52;3.50;;;3.20;;
52608;SDS011;38503;48.544;12.142;2022-09-01T11:09:18;3.30;;;3.00;;
52608;SDS011;38503;48.544;12.142;2022-09-01T11:17:28;3.47;;;3.07;;
52608;SDS011;38503;48.544;12.142;2022-09-01T11:22:59;3.87;;;2.80;;
52608;SDS011;38503;48.544;12.142;2022-09-01T11:31:00;3.40;;;3.10;;
52608;SDS011;38503;48.544;12.142;2022-09-01T11:36:32;2.90;;;2.70;;
52608;SDS011;38503;48.544;12.142;2022-09-01T11:39:36;3.13;;;2.93;;
52608;SDS011;38503;48.544;12.142;2022-09-01T11:44:51;3.10;;;2.73;;
52608;SDS011;38503;48.544;12.142;2022-09-01T11:47:46;3.23;;;2.60;;
52608;SDS011;38503;48.544;12.142;2022-09-01T11:50:22;3.83;;;2.70;;
52608;SDS011;38503;48.544;12.142;2022-09-01T11:55:36;4.53;;;2.50;;
52608;SDS011;38503;48.544;12.142;2022-09-01T12:00:54;5.07;;;2.80;;
52608;SDS011;38503;48.544;12.142;2022-09-01T12:03:26;3.03;;;2.80;;
52608;SDS011;38503;48.544;12.142;2022-09-01T12:05:58;2.60;;;2.40;;
52608;SDS011;38503;48.544;12.142;2022-09-01T12:08:30;2.87;;;2.53;;
52608;SDS011;38503;48.544;12.142;2022-09-01T12:11:04;3.10;;;2.80;;
52608;SDS011;38503;48.544;12.142;2022-09-01T12:13:32;3.00;;;2.60;;
52608;SDS011;38503;48.544;12.142;2022-09-01T12:16:01;2.77;;;2.43;;
52608;SDS011;38503;48.544;12.142;2022-09-01T12:18:45;2.50;;;2.30;;
52608;SDS011;38503;48.544;12.142;2022-09-01T12:21:19;2.40;;;2.20;;
52608;SDS011;38503;48.544;12.142;2022-09-01T12:24:14;2.63;;;2.30;;
52608;SDS011;38503;48.544;12.142;2022-09-01T12:26:44;2.60;;;2.30;;
52608;SDS011;38503;48.544;12.142;2022-09-01T12:29:16;2.30;;;2.10;;
52608;SDS011;38503;48.544;12.142;2022-09-01T12:31:44;2.40;;;2.20;;
52608;SDS011;38503;48.544;12.142;2022-09-01T12:39:55;4.27;;;3.63;;
52608;SDS011;38503;48.544;12.142;2022-09-01T12:42:31;2.30;;;2.10;;
52608;SDS011;38503;48.544;12.142;2022-09-01T12:45:09;4.93;;;2.30;;
52608;SDS011;38503;48.544;12.142;2022-09-01T12:52:46;2.67;;;2.17;;
52608;SDS011;38503;48.544;12.142;2022-09-01T12:55:21;2.13;;;2.03;;
52608;SDS011;38503;48.544;12.142;2022-09-01T12:58:10;3.27;;;2.57;;
52608;SDS011;38503;48.544;12.142;2022-09-01T13:01:00;2.40;;;2.20;;
52608;SDS011;38503;48.544;12.142;2022-09-01T13:03:34;3.00;;;2.37;;
52608;SDS011;38503;48.544;12.142;2022-09-01T13:06:01;2.50;;;2.30;;
52608;SDS011;38503;48.544;12.142;2022-09-01T13:08:30;2.57;;;2.37;;
52608;SDS011;38503;48.544;12.142;2022-09-01T13:13:36;2.90;;;2.70;;
52608;SDS011;38503;48.544;12.142;2022-09-01T13:16:04;4.50;;;2.70;;
52608;SDS011;38503;48.544;12.142;2022-09-01T13:18:38;3.23;;;2.73;;
52608;SDS011;38503;48.544;12.142;2022-09-01T13:21:26;4.00;;;2.57;;
52608;SDS011;38503;48.544;12.142;2022-09-01T13:23:55;2.83;;;2.63;;
52608;SDS011;38503;48.544;12.142;2022-09-01T13:26:22;4.17;;;2.40;;
52608;SDS011;38503;48.544;12.142;2022-09-01T13:28:49;4.30;;;2.33;;
52608;SDS011;38503;48.544;12.142;2022-09-01T13:31:16;2.90;;;2.17;;
52608;SDS011;38503;48.544;12.142;2022-09-01T13:34:01;2.70;;;2.27;;
52608;SDS011;38503;48.544;12.142;2022-09-01T13:36:45;2.20;;;2.00;;
52608;SDS011;38503;48.544;12.142;2022-09-01T13:39:17;2.63;;;2.43;;
52608;SDS011;38503;48.544;12.142;2022-09-01T13:41:45;3.37;;;2.30;;
52608;SDS011;38503;48.544;12.142;2022-09-01T13:44:13;4.07;;;2.50;;
52608;SDS011;38503;48.544;12.142;2022-09-01T13:46:42;2.70;;;2.50;;
52608;SDS011;38503;48.544;12.142;2022-09-01T13:49:30;4.07;;;2.30;;
52608;SDS011;38503;48.544;12.142;2022-09-01T13:52:17;3.77;;;2.10;;
52608;SDS011;38503;48.544;12.142;2022-09-01T13:54:44;2.43;;;2.23;;
52608;SDS011;38503;48.544;12.142;2022-09-01T13:57:13;4.50;;;2.47;;
52608;SDS011;38503;48.544;12.142;2022-09-01T13:59:42;2.33;;;2.13;;
52608;SDS011;38503;48.544;12.142;2022-09-01T14:02:09;3.07;;;2.50;;
52608;SDS011;38503;48.544;12.142;2022-09-01T14:04:36;3.30;;;2.40;;
52608;SDS011;38503;48.544;12.142;2022-09-01T14:07:03;2.40;;;2.20;;
52608;SDS011;38503;48.544;12.142;2022-09-01T14:09:30;2.40;;;2.20;;
52608;SDS011;38503;48.544;12.142;2022-09-01T14:11:58;3.07;;;2.23;;
52608;SDS011;38503;48.544;12.142;2022-09-01T14:14:25;2.53;;;2.33;;
52608;SDS011;38503;48.544;12.142;2022-09-01T14:16:52;3.23;;;2.87;;
52608;SDS011;38503;48.544;12.142;2022-09-01T14:19:19;2.30;;;2.10;;
52608;SDS011;38503;48.544;12.142;2022-09-01T14:21:46;2.83;;;2.50;;
52608;SDS011;38503;48.544;12.142;2022-09-01T14:24:14;2.73;;;2.43;;
52608;SDS011;38503;48.544;12.142;2022-09-01T14:26:45;2.30;;;2.10;;
52608;SDS011;38503;48.544;12.142;2022-09-01T14:29:15;5.43;;;2.50;;
52608;SDS011;38503;48.544;12.142;2022-09-01T14:31:43;3.83;;;2.13;;
52608;SDS011;38503;48.544;12.142;2022-09-01T14:34:10;2.27;;;2.07;;
52608;SDS011;38503;48.544;12.142;2022-09-01T14:36:37;3.00;;;2.10;;
52608;SDS011;38503;48.544;12.142;2022-09-01T14:39:04;2.23;;;2.00;;
52608;SDS011;38503;48.544;12.142;2022-09-01T14:41:32;3.57;;;2.10;;
52608;SDS011;38503;48.544;12.142;2022-09-01T14:43:59;2.13;;;1.93;;
52608;SDS011;38503;48.544;12.142;2022-09-01T14:46:28;3.53;;;2.10;;
52608;SDS011;38503;48.544;12.142;2022-09-01T14:48:59;2.00;;;1.90;;
52608;SDS011;38503;48.544;12.142;2022-09-01T14:51:28;4.73;;;2.50;;
52608;SDS011;38503;48.544;12.142;2022-09-01T14:54:18;2.43;;;2.00;;
52608;SDS011;38503;48.544;12.142;2022-09-01T14:56:45;4.70;;;2.47;;
52608;SDS011;38503;48.544;12.142;2022-09-01T14:59:33;2.50;;;2.10;;
52608;SDS011;38503;48.544;12.142;2022-09-01T15:02:00;2.77;;;2.50;;
52608;SDS011;38503;48.544;12.142;2022-09-01T15:04:27;2.30;;;2.10;;
52608;SDS011;38503;48.544;12.142;2022-09-01T15:06:54;3.13;;;2.53;;
52608;SDS011;38503;48.544;12.142;2022-09-01T15:09:21;3.40;;;2.20;;
52608;SDS011;38503;48.544;12.142;2022-09-01T15:11:48;2.93;;;2.33;;
52608;SDS011;38503;48.544;12.142;2022-09-01T15:14:15;2.33;;;2.10;;
52608;SDS011;38503;48.544;12.142;2022-09-01T15:16:43;4.00;;;2.27;;
52608;SDS011;38503;48.544;12.142;2022-09-01T15:19:12;3.33;;;2.07;;
52608;SDS011;38503;48.544;12.142;2022-09-01T15:21:40;2.10;;;1.90;;
52608;SDS011;38503;48.544;12.142;2022-09-01T15:24:08;3.07;;;2.50;;
52608;SDS011;38503;48.544;12.142;2022-09-01T15:26:36;3.40;;;2.20;;
52608;SDS011;38503;48.544;12.142;2022-09-01T15:29:06;2.27;;;2.07;;
52608;SDS011;38503;48.544;12.142;2022-09-01T15:31:37;2.90;;;2.63;;
52608;SDS011;38503;48.544;12.142;2022-09-01T15:34:04;2.80;;;2.47;;
52608;SDS011;38503;48.544;12.142;2022-09-01T15:36:33;2.23;;;1.97;;
52608;SDS011;38503;48.544;12.142;2022-09-01T15:39:02;5.23;;;2.40;;
52608;SDS011;38503;48.544;12.142;2022-09-01T15:41:33;2.20;;;2.00;;
52608;SDS011;38503;48.544;12.142;2022-09-01T15:44:02;4.73;;;2.60;;
52608;SDS011;38503;48.544;12.142;2022-09-01T15:46:32;3.00;;;2.10;;
52608;SDS011;38503;48.544;12.142;2022-09-01T15:49:01;4.80;;;2.10;;
52608;SDS011;38503;48.544;12.142;2022-09-01T15:51:36;2.40;;;2.20;;
52608;SDS011;38503;48.544;12.142;2022-09-01T15:54:07;2.53;;;2.00;;
52608;SDS011;38503;48.544;12.142;2022-09-01T15:56:40;2.20;;;1.90;;
52608;SDS011;38503;48.544;12.142;2022-09-01T15:59:08;2.90;;;2.20;;
52608;SDS011;38503;48.544;12.142;2022-09-01T16:01:37;3.30;;;2.40;;
52608;SDS011;38503;48.544;12.142;2022-09-01T16:04:07;2.33;;;2.13;;
52608;SDS011;38503;48.544;12.142;2022-09-01T16:06:46;2.60;;;2.10;;
52608;SDS011;38503;48.544;12.142;2022-09-01T16:09:14;3.43;;;1.90;;
52608;SDS011;38503;48.544;12.142;2022-09-01T16:11:43;2.53;;;2.33;;
52608;SDS011;38503;48.544;12.142;2022-09-01T16:14:10;2.47;;;2.10;;
52608;SDS011;38503;48.544;12.142;2022-09-01T16:24:50;2.70;;;2.50;;